Time;durP1;ratioP1;P1;durP2;ratioP2;P2;SDS_P1;SDS_P2;PMS_P1;PMS_P2;Temp;Humidity;BMP_temperature;BMP_pressure;BME280_temperature;BME280_humidity;BME280_pressure;Samples;Min_cycle;Max_cycle;Signal;HPM_P1;HPM_P2
2021/11/27 00:00:59;;;;;;;7.53;3.38;;;4.70;90.20;;;;;;5036906;28;20052;-72
2021/11/27 00:03:26;;;;;;;9.55;3.30;;;4.70;90.20;;;;;;5037241;28;20404;-72
2021/11/27 00:05:53;;;;;;;8.57;2.60;;;4.60;90.20;;;;;;5035747;28;20025;-70
2021/11/27 00:08:21;;;;;;;8.65;3.13;;;4.50;90.10;;;;;;5037372;28;20089;-72
2021/11/27 00:10:50;;;;;;;11.52;2.95;;;4.50;90.20;;;;;;5027635;28;20025;-71
2021/11/27 00:13:17;;;;;;;6.82;2.00;;;4.50;90.30;;;;;;5037545;28;20025;-72
2021/11/27 00:15:43;;;;;;;9.80;3.47;;;4.40;90.30;;;;;;5036437;28;20049;-71
2021/11/27 00:18:10;;;;;;;7.30;3.15;;;4.40;90.30;;;;;;5040999;28;20025;-72
2021/11/27 00:20:46;;;;;;;9.63;2.65;;;4.40;90.30;;;;;;5036820;28;20439;-72
2021/11/27 00:23:13;;;;;;;6.05;2.47;;;4.40;90.30;;;;;;5035917;28;20013;-73
2021/11/27 00:25:41;;;;;;;13.75;6.60;;;4.40;90.30;;;;;;5037314;28;20022;-73
2021/11/27 00:28:07;;;;;;;9.82;4.43;;;4.30;90.10;;;;;;5048289;28;20082;-71
2021/11/27 00:30:34;;;;;;;9.25;6.15;;;4.30;90.00;;;;;;5027668;28;20036;-71
2021/11/27 00:33:01;;;;;;;13.18;6.53;;;4.30;90.00;;;;;;5040495;28;20048;-71
2021/11/27 00:35:27;;;;;;;9.98;5.28;;;4.30;90.00;;;;;;5039050;28;20040;-70
2021/11/27 00:37:56;;;;;;;9.30;4.05;;;4.40;90.00;;;;;;5037237;28;20392;-70
2021/11/27 00:40:23;;;;;;;10.88;4.95;;;4.40;90.00;;;;;;5023997;28;20025;-72
2021/11/27 00:42:49;;;;;;;5.47;1.95;;;4.40;90.10;;;;;;5035664;28;20112;-72
2021/11/27 00:45:17;;;;;;;5.90;1.85;;;4.50;90.20;;;;;;5037212;28;20032;-72
2021/11/27 00:47:48;;;;;;;7.32;2.15;;;4.50;90.00;;;;;;5036913;28;20435;-73
2021/11/27 00:50:18;;;;;;;6.78;1.90;;;4.50;90.10;;;;;;5037219;28;20546;-71
2021/11/27 00:52:44;;;;;;;4.93;1.83;;;4.50;90.20;;;;;;5036842;28;20115;-72
2021/11/27 00:55:10;;;;;;;4.28;1.70;;;4.60;90.30;;;;;;5036943;28;20076;-72
2021/11/27 00:57:38;;;;;;;4.40;2.03;;;4.50;90.00;;;;;;5036957;28;20033;-71
2021/11/27 01:00:14;;;;;;;5.80;2.28;;;4.50;90.00;;;;;;5037076;28;20022;-71
2021/11/27 01:02:41;;;;;;;4.30;1.85;;;4.50;90.00;;;;;;5034989;28;20021;-72
2021/11/27 01:05:09;;;;;;;4.53;1.90;;;4.40;89.80;;;;;;5036937;28;20559;-72
2021/11/27 01:07:35;;;;;;;7.53;2.55;;;4.40;89.70;;;;;;5036553;28;20030;-71
2021/11/27 01:10:06;;;;;;;5.75;1.60;;;4.30;89.70;;;;;;5036820;28;20028;-70
2021/11/27 01:12:32;;;;;;;5.20;1.75;;;4.30;89.60;;;;;;5036732;28;20037;-70
2021/11/27 01:14:57;;;;;;;12.77;6.57;;;4.20;89.50;;;;;;5036932;28;20021;-70
2021/11/27 01:17:23;;;;;;;14.70;8.00;;;4.20;89.80;;;;;;5036730;28;20034;-70
2021/11/27 01:19:49;;;;;;;20.20;11.93;;;4.10;90.00;;;;;;5036925;28;20083;-71
2021/11/27 01:22:18;;;;;;;16.00;9.60;;;4.20;90.30;;;;;;5036449;28;20029;-70
2021/11/27 01:24:45;;;;;;;29.77;19.10;;;4.10;90.30;;;;;;5037073;28;20088;-71
2021/11/27 01:27:12;;;;;;;18.73;10.10;;;4.10;90.20;;;;;;5037049;28;20036;-72
2021/11/27 01:29:41;;;;;;;8.60;4.18;;;4.10;90.20;;;;;;5036819;28;20029;-72
2021/11/27 01:32:09;;;;;;;9.02;4.45;;;4.10;90.40;;;;;;5023746;28;20057;-72
2021/11/27 01:34:36;;;;;;;9.63;6.13;;;4.10;90.30;;;;;;5036868;28;20029;-72
2021/11/27 01:37:02;;;;;;;10.23;5.60;;;4.10;90.20;;;;;;5036183;28;20041;-72
2021/11/27 01:39:28;;;;;;;5.70;3.15;;;4.10;90.20;;;;;;5036450;28;20491;-72
2021/11/27 01:41:54;;;;;;;12.80;4.50;;;4.00;90.10;;;;;;5036843;28;20025;-72
2021/11/27 01:44:20;;;;;;;13.27;2.90;;;3.90;90.10;;;;;;5038420;28;20017;-72
2021/11/27 01:46:46;;;;;;;7.88;4.22;;;3.90;90.30;;;;;;5040456;28;20108;-72
2021/11/27 01:49:12;;;;;;;11.48;3.20;;;3.90;90.50;;;;;;5039813;28;20028;-72
2021/11/27 01:51:39;;;;;;;7.32;2.58;;;3.90;90.80;;;;;;5039881;28;20029;-72
2021/11/27 01:54:08;;;;;;;10.20;3.38;;;3.80;90.90;;;;;;5039864;28;20103;-72
2021/11/27 01:56:46;;;;;;;10.23;3.83;;;3.80;91.10;;;;;;5040302;28;20026;-72
2021/11/27 01:59:13;;;;;;;10.50;2.05;;;3.80;91.20;;;;;;5039958;28;20048;-72
2021/11/27 02:01:40;;;;;;;9.40;4.20;;;3.80;91.40;;;;;;5039913;28;20018;-72
2021/11/27 02:04:08;;;;;;;10.48;1.92;;;3.80;91.40;;;;;;5039693;28;20045;-72
2021/11/27 02:06:37;;;;;;;10.70;1.85;;;3.80;91.50;;;;;;5039599;28;20025;-72
2021/11/27 02:09:08;;;;;;;8.15;2.45;;;3.80;91.70;;;;;;5039519;28;20041;-72
2021/11/27 02:11:36;;;;;;;10.00;2.97;;;3.80;91.70;;;;;;5040060;28;20037;-72
2021/11/27 02:14:02;;;;;;;8.02;2.35;;;3.90;92.00;;;;;;5039769;28;20040;-72
2021/11/27 02:16:28;;;;;;;15.35;4.85;;;3.90;92.20;;;;;;5039808;28;20080;-72
2021/11/27 02:18:54;;;;;;;11.10;3.08;;;3.90;92.00;;;;;;5039815;28;20022;-73
2021/11/27 02:21:23;;;;;;;11.70;3.50;;;4.00;92.20;;;;;;5038191;28;20025;-73
2021/11/27 02:23:51;;;;;;;18.33;7.53;;;4.10;92.10;;;;;;5039475;28;20049;-72
2021/11/27 02:26:20;;;;;;;17.02;5.20;;;4.10;92.10;;;;;;5039704;28;20030;-72
2021/11/27 02:29:10;;;;;;;35.83;10.88;;;4.20;92.00;;;;;;5039444;28;20022;-72
2021/11/27 02:31:37;;;;;;;26.33;6.75;;;4.20;92.00;;;;;;5039402;28;20030;-72
2021/11/27 02:34:05;;;;;;;34.92;10.88;;;4.20;91.90;;;;;;5039435;28;20025;-72
2021/11/27 02:36:31;;;;;;;11.25;4.82;;;4.20;91.80;;;;;;5038899;28;20071;-72
2021/11/27 02:38:58;;;;;;;17.90;5.88;;;4.10;91.70;;;;;;5039357;28;20018;-72
2021/11/27 02:41:25;;;;;;;19.20;6.72;;;4.10;91.70;;;;;;5039323;28;20026;-72
2021/11/27 02:43:52;;;;;;;16.50;6.30;;;4.10;91.70;;;;;;5039306;28;20024;-72
2021/11/27 02:46:18;;;;;;;8.88;2.65;;;4.10;91.50;;;;;;5039046;28;20036;-72
2021/11/27 02:48:43;;;;;;;8.50;2.05;;;4.10;91.40;;;;;;5028830;28;20486;-72
2021/11/27 02:51:10;;;;;;;8.95;2.00;;;4.00;91.30;;;;;;5035873;28;20030;-72
2021/11/27 02:53:37;;;;;;;7.70;2.22;;;3.90;91.20;;;;;;5038811;28;20036;-72
2021/11/27 02:56:04;;;;;;;9.27;2.40;;;3.90;91.20;;;;;;5038838;28;20021;-71
2021/11/27 02:58:30;;;;;;;12.00;2.50;;;3.90;91.20;;;;;;5039069;28;20030;-72
2021/11/27 03:00:59;;;;;;;10.27;1.98;;;3.90;91.30;;;;;;5038767;28;20032;-72
2021/11/27 03:03:25;;;;;;;8.30;1.88;;;3.90;91.40;;;;;;5038732;28;20400;-72
2021/11/27 03:05:51;;;;;;;9.38;2.42;;;3.90;91.30;;;;;;5038485;28;20028;-72
2021/11/27 03:08:17;;;;;;;11.02;2.70;;;3.80;91.30;;;;;;5038679;28;20014;-71
2021/11/27 03:10:46;;;;;;;6.57;1.65;;;3.80;91.30;;;;;;5038656;28;20025;-72
2021/11/27 03:13:12;;;;;;;5.63;1.70;;;3.80;91.30;;;;;;5037627;28;20021;-72
2021/11/27 03:15:41;;;;;;;10.35;2.15;;;3.80;91.30;;;;;;5036982;28;20045;-72
2021/11/27 03:18:11;;;;;;;13.75;2.25;;;3.70;91.20;;;;;;5038563;28;20025;-72
2021/11/27 03:20:37;;;;;;;7.07;2.33;;;3.70;91.20;;;;;;5038005;28;20030;-72
2021/11/27 03:23:04;;;;;;;8.30;2.40;;;3.70;91.30;;;;;;5038652;28;20025;-72
2021/11/27 03:25:30;;;;;;;11.50;2.67;;;3.80;91.40;;;;;;5038198;28;20033;-72
2021/11/27 03:27:56;;;;;;;15.38;2.72;;;3.70;91.40;;;;;;5038312;28;20051;-72
2021/11/27 03:30:22;;;;;;;11.32;2.50;;;3.70;91.40;;;;;;5038131;28;20103;-72
2021/11/27 03:32:49;;;;;;;7.60;1.80;;;3.70;91.60;;;;;;5038161;28;20021;-72
2021/11/27 03:35:15;;;;;;;9.80;2.55;;;3.70;91.60;;;;;;5025264;28;20127;-72
2021/11/27 03:37:42;;;;;;;9.30;1.67;;;3.70;91.70;;;;;;5037711;28;20042;-72
2021/11/27 03:40:10;;;;;;;6.90;2.17;;;3.80;91.90;;;;;;5038126;28;20025;-72
2021/11/27 03:42:36;;;;;;;11.35;2.25;;;3.80;91.90;;;;;;5037996;28;20435;-72
2021/11/27 03:45:04;;;;;;;11.93;2.60;;;3.80;92.00;;;;;;5038146;28;20030;-72
2021/11/27 03:47:30;;;;;;;11.13;2.50;;;3.90;92.20;;;;;;5037496;28;20077;-72
2021/11/27 03:49:56;;;;;;;9.85;2.50;;;3.90;92.10;;;;;;5025415;28;20033;-72
2021/11/27 03:52:22;;;;;;;9.63;3.25;;;3.90;92.10;;;;;;5037322;28;20014;-72
2021/11/27 03:54:49;;;;;;;11.05;2.13;;;3.90;92.10;;;;;;5037987;28;20079;-71
2021/11/27 03:57:15;;;;;;;7.88;1.92;;;4.00;92.40;;;;;;5036297;28;20025;-72
2021/11/27 03:59:41;;;;;;;7.53;1.80;;;4.10;92.50;;;;;;5038062;28;20025;-72
2021/11/27 04:02:07;;;;;;;7.22;2.15;;;4.10;92.50;;;;;;5036185;28;20032;-72
2021/11/27 04:04:39;;;;;;;8.23;2.08;;;4.10;92.40;;;;;;5036402;28;20037;-72
2021/11/27 04:07:05;;;;;;;8.32;2.28;;;4.00;92.20;;;;;;5036845;28;20499;-72
2021/11/27 04:09:32;;;;;;;8.20;1.75;;;4.00;92.10;;;;;;5037788;28;20056;-72
2021/11/27 04:11:58;;;;;;;8.68;2.08;;;3.90;92.20;;;;;;5036068;28;20026;-72
2021/11/27 04:14:24;;;;;;;18.25;3.30;;;3.90;92.30;;;;;;5037556;28;20093;-72
2021/11/27 04:16:50;;;;;;;8.63;2.10;;;3.90;92.30;;;;;;5037327;28;20060;-72
2021/11/27 04:19:17;;;;;;;10.52;2.90;;;3.80;92.30;;;;;;5037542;28;20388;-72
2021/11/27 04:21:43;;;;;;;7.90;2.00;;;3.80;92.30;;;;;;5036994;28;20017;-72
2021/11/27 04:24:09;;;;;;;10.05;2.13;;;3.70;92.30;;;;;;5037363;28;20025;-72
2021/11/27 04:26:34;;;;;;;9.27;2.42;;;3.80;92.50;;;;;;5037249;28;20028;-71
2021/11/27 04:29:00;;;;;;;8.02;1.95;;;3.80;92.60;;;;;;5037449;28;20041;-72
2021/11/27 04:31:26;;;;;;;9.70;2.13;;;3.70;92.60;;;;;;5037175;28;20045;-72
2021/11/27 04:33:53;;;;;;;8.77;2.22;;;3.80;92.80;;;;;;5037115;28;20077;-72
2021/11/27 04:36:20;;;;;;;5.63;1.83;;;3.80;92.80;;;;;;5036705;28;20471;-72
2021/11/27 04:38:47;;;;;;;9.57;3.33;;;3.80;93.00;;;;;;5035921;28;20025;-71
2021/11/27 04:41:13;;;;;;;11.00;2.15;;;3.80;93.10;;;;;;5037260;28;20024;-72
2021/11/27 04:43:38;;;;;;;5.10;1.70;;;3.90;93.10;;;;;;5037170;28;20100;-72
2021/11/27 04:46:04;;;;;;;11.43;2.70;;;3.90;93.00;;;;;;5037055;28;20021;-72
2021/11/27 04:48:31;;;;;;;10.20;2.10;;;4.00;93.00;;;;;;5036505;28;20029;-72
2021/11/27 04:50:56;;;;;;;9.00;2.28;;;4.10;93.00;;;;;;5036887;28;20455;-72
2021/11/27 04:53:23;;;;;;;8.90;2.42;;;4.10;93.10;;;;;;5037003;28;20105;-72
2021/11/27 04:55:49;;;;;;;7.35;1.98;;;4.10;93.20;;;;;;5036899;28;20026;-72
2021/11/27 04:58:15;;;;;;;7.93;1.60;;;4.20;93.20;;;;;;5037463;28;20087;-72
2021/11/27 05:00:45;;;;;;;6.63;1.67;;;4.30;93.50;;;;;;5036994;28;20017;-72
2021/11/27 05:03:11;;;;;;;5.13;1.60;;;4.30;93.60;;;;;;5037050;28;20025;-72
2021/11/27 05:05:37;;;;;;;8.18;1.77;;;4.30;93.80;;;;;;5036812;28;20075;-72
2021/11/27 05:08:03;;;;;;;4.55;1.75;;;4.40;93.90;;;;;;5035740;28;20029;-72
2021/11/27 05:10:29;;;;;;;7.70;1.55;;;4.40;93.90;;;;;;5036695;28;20493;-72
2021/11/27 05:12:55;;;;;;;6.25;2.05;;;4.50;94.00;;;;;;5037142;28;20052;-72
2021/11/27 05:15:21;;;;;;;9.68;1.48;;;4.50;94.00;;;;;;5036714;28;20040;-72
2021/11/27 05:17:47;;;;;;;6.72;1.48;;;4.50;94.00;;;;;;5036945;28;20025;-72
2021/11/27 05:20:13;;;;;;;6.00;1.67;;;4.50;93.90;;;;;;5039985;28;20032;-72
2021/11/27 05:22:39;;;;;;;7.22;2.15;;;4.50;93.70;;;;;;5040749;28;20029;-72
2021/11/27 05:25:07;;;;;;;5.57;1.60;;;4.40;93.60;;;;;;5040429;28;20025;-72
2021/11/27 05:27:35;;;;;;;6.13;1.90;;;4.40;93.60;;;;;;5040726;28;20048;-72
2021/11/27 05:30:02;;;;;;;6.60;1.60;;;4.40;93.70;;;;;;5039101;28;20021;-72
2021/11/27 05:35:00;;;;;;;5.15;1.33;;;4.50;93.80;;;;;;5040627;28;20032;-72
2021/11/27 05:37:28;;;;;;;5.82;1.40;;;4.50;93.80;;;;;;5039887;28;20049;-72
2021/11/27 05:39:55;;;;;;;4.53;1.38;;;4.50;93.80;;;;;;5040437;28;20030;-72
2021/11/27 05:42:21;;;;;;;3.75;1.23;;;4.60;93.90;;;;;;5040321;28;20036;-72
2021/11/27 05:44:49;;;;;;;3.60;1.40;;;4.60;93.90;;;;;;5040116;28;20030;-72
2021/11/27 05:47:16;;;;;;;2.83;0.93;;;4.60;93.90;;;;;;5040318;28;20026;-72
2021/11/27 05:49:42;;;;;;;6.38;1.50;;;4.60;93.80;;;;;;5039837;28;20021;-72
2021/11/27 05:52:09;;;;;;;5.72;1.17;;;4.50;93.80;;;;;;5038489;28;20022;-72
2021/11/27 05:54:34;;;;;;;4.90;1.73;;;4.60;93.90;;;;;;5039876;28;20468;-72
2021/11/27 05:57:02;;;;;;;10.23;1.77;;;4.60;94.10;;;;;;5040120;28;20031;-72
2021/11/27 05:59:28;;;;;;;10.23;2.60;;;4.50;93.80;;;;;;5039892;28;20392;-72
2021/11/27 06:01:54;;;;;;;7.10;2.75;;;4.50;93.80;;;;;;5039990;28;20099;-72
2021/11/27 06:04:20;;;;;;;8.10;3.05;;;4.50;93.90;;;;;;5039680;28;20021;-72
2021/11/27 06:06:46;;;;;;;9.38;2.03;;;4.50;94.00;;;;;;5039597;28;20037;-72
2021/11/27 06:09:11;;;;;;;10.45;2.05;;;4.60;94.10;;;;;;5039760;28;20036;-72
2021/11/27 06:11:37;;;;;;;9.18;1.58;;;4.60;94.30;;;;;;5039698;28;20021;-72
2021/11/27 06:14:03;;;;;;;7.75;1.60;;;4.70;94.40;;;;;;5039813;28;20026;-72
2021/11/27 06:16:29;;;;;;;7.53;2.22;;;4.70;94.30;;;;;;5039576;28;20163;-72
2021/11/27 06:18:54;;;;;;;10.82;2.00;;;4.70;94.10;;;;;;5039649;28;20495;-72
2021/11/27 06:21:21;;;;;;;7.05;1.80;;;4.60;93.90;;;;;;5038027;28;20091;-72
2021/11/27 06:23:54;;;;;;;14.25;2.65;;;4.60;93.70;;;;;;5038083;28;20033;-72
2021/11/27 06:26:20;;;;;;;6.43;1.52;;;4.70;94.00;;;;;;5039458;28;20033;-72
2021/11/27 06:28:46;;;;;;;6.68;2.03;;;4.70;93.80;;;;;;5039302;28;20100;-72
2021/11/27 06:31:13;;;;;;;9.10;1.80;;;4.80;93.70;;;;;;5039005;28;20496;-72
2021/11/27 06:33:39;;;;;;;10.30;2.92;;;4.80;93.60;;;;;;5039282;28;20396;-72
2021/11/27 06:36:06;;;;;;;11.63;3.50;;;4.90;93.70;;;;;;5038838;28;20053;-72
2021/11/27 06:38:32;;;;;;;11.30;3.33;;;4.90;93.60;;;;;;5039332;28;20104;-72
2021/11/27 06:40:58;;;;;;;13.27;3.33;;;4.90;93.50;;;;;;5039133;28;20021;-72
2021/11/27 06:43:24;;;;;;;12.82;3.50;;;4.90;93.40;;;;;;5039247;28;20508;-72
2021/11/27 06:45:50;;;;;;;13.95;2.58;;;5.00;93.50;;;;;;5039356;28;20385;-72
2021/11/27 06:48:15;;;;;;;8.85;2.40;;;5.00;93.40;;;;;;5032768;28;20033;-72
2021/11/27 06:50:41;;;;;;;10.15;2.60;;;5.10;93.50;;;;;;5032451;28;20097;-72
2021/11/27 06:53:07;;;;;;;9.63;2.53;;;5.10;93.30;;;;;;5038950;28;20047;-72
2021/11/27 06:55:33;;;;;;;12.20;2.75;;;5.00;93.10;;;;;;5039068;28;20021;-72
2021/11/27 06:58:00;;;;;;;9.52;2.55;;;5.10;93.10;;;;;;5038839;28;20112;-72
2021/11/27 07:00:26;;;;;;;13.02;3.53;;;5.10;93.10;;;;;;5038982;28;20485;-72
2021/11/27 07:02:51;;;;;;;10.82;2.88;;;5.10;93.30;;;;;;5038750;28;20564;-72
2021/11/27 07:05:18;;;;;;;11.27;3.97;;;5.10;93.20;;;;;;5038574;28;20061;-72
2021/11/27 07:07:43;;;;;;;13.90;3.75;;;5.10;93.20;;;;;;5037696;28;20453;-72
2021/11/27 07:10:09;;;;;;;19.63;4.40;;;5.00;93.20;;;;;;5038676;28;20093;-71
2021/11/27 07:12:35;;;;;;;10.65;3.00;;;5.10;93.20;;;;;;5038589;28;20060;-71
2021/11/27 07:15:03;;;;;;;15.98;4.35;;;5.00;93.10;;;;;;5038578;28;20366;-72
2021/11/27 07:17:33;;;;;;;12.75;5.03;;;5.00;93.10;;;;;;5038576;28;20029;-72
2021/11/27 07:20:01;;;;;;;12.23;4.47;;;5.00;93.00;;;;;;5038657;28;20032;-71
2021/11/27 07:22:27;;;;;;;15.45;4.30;;;5.00;92.90;;;;;;5038324;28;20018;-72
2021/11/27 07:24:53;;;;;;;11.90;2.80;;;5.00;92.90;;;;;;5038247;28;20380;-72
2021/11/27 07:27:19;;;;;;;12.35;3.30;;;5.10;93.30;;;;;;5038533;28;20025;-72
2021/11/27 07:29:44;;;;;;;12.07;3.42;;;5.10;93.40;;;;;;5038207;28;20531;-72
2021/11/27 07:32:10;;;;;;;10.88;4.40;;;5.10;93.40;;;;;;5036992;28;20029;-71
2021/11/27 07:34:36;;;;;;;9.32;2.90;;;5.10;93.30;;;;;;5036907;28;20029;-72
2021/11/27 07:37:03;;;;;;;12.57;4.25;;;5.00;93.10;;;;;;5037915;28;20052;-71
2021/11/27 07:39:29;;;;;;;34.88;12.63;;;5.10;93.20;;;;;;5038051;28;20025;-72
2021/11/27 07:41:55;;;;;;;39.92;12.00;;;5.10;93.10;;;;;;5037659;28;20026;-72
2021/11/27 07:44:21;;;;;;;56.20;18.25;;;5.10;93.10;;;;;;5037915;28;20025;-71
2021/11/27 07:46:52;;;;;;;19.13;7.47;;;5.10;93.00;;;;;;5038304;28;20060;-72
2021/11/27 07:49:19;;;;;;;14.55;6.55;;;5.20;93.10;;;;;;5025085;28;20486;-72
2021/11/27 07:51:45;;;;;;;13.32;4.00;;;5.10;93.00;;;;;;5038036;28;20038;-72
2021/11/27 07:54:11;;;;;;;15.75;4.47;;;5.10;92.90;;;;;;5037680;28;20075;-72
2021/11/27 07:56:38;;;;;;;11.40;3.78;;;5.20;93.00;;;;;;5037926;28;20036;-71
2021/11/27 07:59:04;;;;;;;18.42;5.35;;;5.20;93.00;;;;;;5038035;28;20097;-72
2021/11/27 08:01:32;;;;;;;11.05;4.28;;;5.20;92.90;;;;;;5038179;28;20014;-72
2021/11/27 08:03:59;;;;;;;14.88;3.97;;;5.20;92.90;;;;;;5037748;28;20045;-72
2021/11/27 08:06:24;;;;;;;19.88;4.13;;;5.20;92.80;;;;;;5037623;28;20392;-72
2021/11/27 08:08:50;;;;;;;15.10;5.43;;;5.20;92.70;;;;;;5037646;28;20029;-72
2021/11/27 08:11:18;;;;;;;13.10;4.05;;;5.20;92.70;;;;;;5036762;28;20113;-72
2021/11/27 08:13:45;;;;;;;14.02;3.50;;;5.20;92.80;;;;;;5037552;28;20093;-72
2021/11/27 08:16:45;;;;;;;14.02;3.45;;;5.20;92.60;;;;;;5037871;28;20061;-71
2021/11/27 08:19:11;;;;;;;14.20;2.85;;;5.30;92.60;;;;;;5037685;28;20018;-72
2021/11/27 08:21:37;;;;;;;13.30;3.85;;;5.40;92.50;;;;;;5037236;28;20503;-71
2021/11/27 08:24:03;;;;;;;13.50;3.67;;;5.40;92.40;;;;;;5037367;28;20052;-72
2021/11/27 08:26:29;;;;;;;9.25;2.20;;;5.40;92.40;;;;;;5037346;28;20040;-72
2021/11/27 08:28:54;;;;;;;11.25;2.47;;;5.50;92.40;;;;;;5037756;28;20037;-72
2021/11/27 08:31:20;;;;;;;12.30;4.47;;;5.50;92.20;;;;;;5037247;28;20045;-72
2021/11/27 08:33:46;;;;;;;13.13;3.80;;;5.50;92.10;;;;;;5037241;28;20025;-71
2021/11/27 08:36:12;;;;;;;22.33;4.55;;;5.60;92.00;;;;;;5035530;28;20039;-69
2021/11/27 08:38:38;;;;;;;14.45;4.13;;;5.60;91.90;;;;;;5037377;28;20380;-71
2021/11/27 08:41:07;;;;;;;8.85;2.28;;;5.70;91.90;;;;;;5037125;28;20092;-71
2021/11/27 08:43:34;;;;;;;10.27;3.20;;;5.70;91.60;;;;;;5037420;28;20388;-69
2021/11/27 08:45:59;;;;;;;13.68;3.15;;;5.70;91.60;;;;;;5036869;28;20025;-70
2021/11/27 08:48:25;;;;;;;12.05;2.90;;;5.70;91.50;;;;;;5028912;28;20038;-70
2021/11/27 08:50:51;;;;;;;6.70;2.60;;;5.70;91.50;;;;;;5031427;28;20077;-71
2021/11/27 08:53:21;;;;;;;14.93;3.47;;;5.60;91.70;;;;;;5038759;28;20108;-71
2021/11/27 08:55:47;;;;;;;9.48;2.00;;;5.70;91.40;;;;;;5040675;28;20032;-76
2021/11/27 08:58:13;;;;;;;9.88;2.63;;;5.70;91.40;;;;;;5041380;28;20025;-73
2021/11/27 09:00:40;;;;;;;10.20;2.05;;;5.70;91.30;;;;;;5041091;28;20025;-74
2021/11/27 09:03:06;;;;;;;12.60;2.38;;;5.70;91.30;;;;;;5041349;28;20025;-73
2021/11/27 09:05:33;;;;;;;12.02;2.55;;;5.70;91.30;;;;;;5039490;28;20459;-72
2021/11/27 09:07:59;;;;;;;13.40;2.60;;;5.70;91.40;;;;;;5041124;28;20030;-75
2021/11/27 09:10:25;;;;;;;7.15;1.75;;;5.70;91.30;;;;;;5040659;28;20033;-73
2021/11/27 09:12:51;;;;;;;13.10;2.03;;;5.70;91.30;;;;;;5041293;28;20025;-76
2021/11/27 09:15:17;;;;;;;9.68;1.80;;;5.80;91.20;;;;;;5039323;28;20036;-76
2021/11/27 09:17:43;;;;;;;6.65;1.98;;;5.80;90.80;;;;;;5039772;28;20124;-73
2021/11/27 09:20:09;;;;;;;5.50;1.75;;;5.80;90.70;;;;;;5038895;28;20045;-75
2021/11/27 09:22:35;;;;;;;11.60;2.40;;;5.80;90.50;;;;;;5037893;28;20049;-78
2021/11/27 09:25:02;;;;;;;9.25;1.90;;;5.80;90.40;;;;;;5040555;28;20028;-76
2021/11/27 09:27:27;;;;;;;9.57;2.30;;;5.90;90.50;;;;;;5040663;28;20039;-74
2021/11/27 09:29:53;;;;;;;11.77;2.10;;;6.00;90.50;;;;;;5037912;28;20055;-74
2021/11/27 09:32:19;;;;;;;18.50;6.03;;;6.10;90.40;;;;;;5037765;28;20492;-71
2021/11/27 09:34:46;;;;;;;36.25;10.63;;;6.10;90.20;;;;;;5039863;28;20029;-72
2021/11/27 09:37:15;;;;;;;9.10;3.10;;;6.20;90.20;;;;;;5038393;28;20084;-74
2021/11/27 09:39:42;;;;;;;11.85;2.30;;;6.20;90.10;;;;;;5037669;28;20108;-75
2021/11/27 09:42:12;;;;;;;17.20;2.90;;;6.20;89.90;;;;;;5039652;28;20014;-75
2021/11/27 09:44:38;;;;;;;12.75;3.90;;;6.20;89.50;;;;;;5039921;28;20029;-74
2021/11/27 09:47:05;;;;;;;15.20;2.78;;;6.20;89.30;;;;;;5038675;28;20385;-79
2021/11/27 09:49:35;;;;;;;13.48;3.15;;;6.30;89.50;;;;;;5037883;28;20039;-78
2021/11/27 09:52:01;;;;;;;12.60;2.83;;;6.30;89.70;;;;;;5039892;28;20021;-75
2021/11/27 09:54:27;;;;;;;12.93;2.78;;;6.40;89.70;;;;;;5040110;28;20048;-76
2021/11/27 09:56:55;;;;;;;10.32;2.75;;;6.40;89.60;;;;;;5040081;28;20476;-73
2021/11/27 09:59:21;;;;;;;8.32;2.42;;;6.40;89.30;;;;;;5039935;28;20061;-76
2021/11/27 10:01:51;;;;;;;10.63;2.35;;;6.50;89.50;;;;;;5038809;28;20025;-75
2021/11/27 10:04:20;;;;;;;15.23;3.13;;;6.50;89.50;;;;;;5039230;28;20029;-73
2021/11/27 10:06:46;;;;;;;9.80;2.50;;;6.40;89.30;;;;;;5039402;28;20021;-77
2021/11/27 10:09:18;;;;;;;9.90;2.00;;;6.40;89.10;;;;;;5039618;28;20052;-71
2021/11/27 10:11:46;;;;;;;14.13;2.67;;;6.30;89.30;;;;;;5040177;28;20492;-75
2021/11/27 10:14:13;;;;;;;6.60;2.00;;;6.30;88.60;;;;;;5039741;28;20036;-75
2021/11/27 10:16:57;;;;;;;11.77;1.98;;;6.20;88.70;;;;;;5039463;28;20032;-72
2021/11/27 10:19:24;;;;;;;12.57;3.25;;;6.20;88.90;;;;;;5039655;28;20450;-78
2021/11/27 10:21:56;;;;;;;29.27;14.45;;;6.30;89.70;;;;;;5037970;28;20080;-73
2021/11/27 10:24:25;;;;;;;26.65;11.25;;;6.50;90.20;;;;;;5038272;28;20032;-76
2021/11/27 10:26:51;;;;;;;57.35;30.80;;;6.60;89.90;;;;;;5038266;28;20028;-75
2021/11/27 10:29:29;;;;;;;13.43;3.92;;;6.70;89.20;;;;;;5037767;28;20025;-75
2021/11/27 10:32:29;;;;;;;11.43;3.97;;;6.70;88.60;;;;;;5038131;28;20022;-75
2021/11/27 10:34:55;;;;;;;12.07;3.40;;;6.70;88.20;;;;;;5033663;28;20124;-76
2021/11/27 10:37:28;;;;;;;15.85;4.07;;;6.70;87.90;;;;;;5036420;28;20121;-77
2021/11/27 10:39:58;;;;;;;19.58;4.55;;;6.70;87.80;;;;;;5037491;28;20021;-76
2021/11/27 10:42:24;;;;;;;10.63;3.05;;;6.80;88.90;;;;;;5036406;28;20044;-76
2021/11/27 10:44:53;;;;;;;14.18;3.17;;;7.30;89.70;;;;;;5037962;28;20018;-74
2021/11/27 10:47:20;;;;;;;11.27;2.63;;;8.00;88.30;;;;;;5035742;28;20401;-74
2021/11/27 10:49:48;;;;;;;11.13;2.88;;;8.60;86.00;;;;;;5038738;28;20049;-72
2021/11/27 10:52:20;;;;;;;10.35;2.40;;;9.20;85.70;;;;;;5026596;28;20277;-73
2021/11/27 10:54:55;;;;;;;12.03;3.23;;;9.70;82.90;;;;;;5033242;28;20036;-73
2021/11/27 10:57:37;;;;;;;8.45;2.60;;;9.70;79.30;;;;;;5032512;28;20287;-72
2021/11/27 11:00:43;;;;;;;12.18;2.88;;;9.70;79.40;;;;;;5038123;28;20022;-71
2021/11/27 11:03:34;;;;;;;10.43;2.30;;;9.90;80.40;;;;;;5038671;28;20370;-71
2021/11/27 11:06:17;;;;;;;10.40;2.22;;;10.40;80.30;;;;;;5038386;28;20026;-72
2021/11/27 11:08:43;;;;;;;;;;;10.80;79.30;;;;;;5026788;28;20018;-73
2021/11/27 11:11:21;;;;;;;12.05;3.30;;;10.70;77.80;;;;;;5036954;28;19912;-72
2021/11/27 11:13:54;;;;;;;9.73;2.38;;;10.50;76.50;;;;;;5035337;28;20111;-72
2021/11/27 11:16:25;;;;;;;7.57;2.05;;;10.10;75.00;;;;;;5017110;28;20029;-71
2021/11/27 11:18:52;;;;;;;11.07;2.30;;;9.70;75.80;;;;;;5019529;28;20022;-71
2021/11/27 11:21:19;;;;;;;9.40;2.53;;;9.30;76.00;;;;;;5018743;28;20080;-71
2021/11/27 11:23:46;;;;;;;6.60;1.90;;;9.00;77.20;;;;;;5019411;28;20068;-72
2021/11/27 11:26:23;;;;;;;9.68;2.75;;;8.70;77.90;;;;;;5019788;28;20045;-71
2021/11/27 11:28:54;;;;;;;12.30;2.17;;;8.30;78.60;;;;;;5038463;28;20080;-72
2021/11/27 11:31:23;;;;;;;15.60;2.35;;;8.10;79.60;;;;;;5038162;28;20021;-72
2021/11/27 11:33:52;;;;;;;11.02;3.15;;;7.90;80.40;;;;;;5038446;28;20029;-71
2021/11/27 11:36:21;;;;;;;7.82;2.50;;;7.70;80.90;;;;;;5037415;28;20095;-72
2021/11/27 11:38:49;;;;;;;10.65;2.47;;;7.60;81.30;;;;;;5038170;28;20030;-71
2021/11/27 11:41:17;;;;;;;14.40;7.10;;;7.50;81.60;;;;;;5037889;28;20018;-72
2021/11/27 11:43:43;;;;;;;18.95;5.55;;;7.40;82.20;;;;;;5029453;28;20033;-71
2021/11/27 11:46:10;;;;;;;16.88;3.65;;;7.20;82.70;;;;;;5019075;28;20503;-71
2021/11/27 11:48:39;;;;;;;13.40;2.90;;;7.10;83.30;;;;;;5028206;28;20080;-71
2021/11/27 11:51:14;;;;;;;10.07;2.72;;;7.10;84.00;;;;;;5037348;28;20067;-70
2021/11/27 11:53:47;;;;;;;16.63;2.85;;;7.10;85.10;;;;;;5036432;28;20471;-71
2021/11/27 11:56:16;;;;;;;10.52;3.10;;;7.10;84.60;;;;;;5037963;28;20029;-70
2021/11/27 11:58:43;;;;;;;12.35;2.30;;;7.00;84.60;;;;;;5037724;28;20022;-71
2021/11/27 12:01:25;;;;;;;11.00;2.78;;;7.00;84.70;;;;;;5036533;28;20029;-72
2021/11/27 12:03:52;;;;;;;10.50;2.40;;;7.00;84.80;;;;;;5036450;28;20025;-73
2021/11/27 12:06:21;;;;;;;15.38;3.13;;;7.00;84.90;;;;;;5037116;28;20045;-74
2021/11/27 12:08:51;;;;;;;13.23;2.60;;;7.00;85.00;;;;;;5037861;28;20104;-73
2021/11/27 12:11:42;;;;;;;12.02;3.97;;;6.90;85.80;;;;;;5037591;28;20052;-73
2021/11/27 12:14:26;;;;;;;21.92;9.02;;;6.90;85.10;;;;;;5037565;28;20033;-73
2021/11/27 12:17:04;;;;;;;20.58;7.15;;;6.90;85.30;;;;;;5048662;28;20025;-73
2021/11/27 12:19:37;;;;;;;19.20;6.18;;;6.90;85.40;;;;;;5037602;28;20049;-73
2021/11/27 12:22:23;;;;;;;27.80;9.68;;;6.80;85.20;;;;;;5036872;28;20064;-73
2021/11/27 12:25:06;;;;;;;38.92;12.82;;;6.80;85.40;;;;;;5037424;28;20032;-73
2021/11/27 12:27:55;;;;;;;29.23;9.23;;;6.70;85.80;;;;;;5036842;28;20036;-73
2021/11/27 12:30:21;;;;;;;24.27;8.02;;;6.70;85.80;;;;;;5036711;28;20053;-73
2021/11/27 12:32:47;;;;;;;21.25;6.78;;;6.60;85.90;;;;;;5035890;28;20032;-74
2021/11/27 12:35:33;;;;;;;20.73;7.82;;;6.60;85.90;;;;;;5035691;28;20053;-73
2021/11/27 12:38:07;;;;;;;17.58;6.15;;;6.50;85.60;;;;;;5029687;28;20084;-75
2021/11/27 12:40:35;;;;;;;23.17;7.50;;;6.50;85.90;;;;;;5033692;28;20061;-73
2021/11/27 12:43:11;;;;;;;22.23;8.57;;;6.50;86.20;;;;;;5037039;28;20025;-74
2021/11/27 12:45:40;;;;;;;27.02;8.73;;;6.50;86.20;;;;;;5037082;28;20061;-73
2021/11/27 12:48:30;;;;;;;16.05;6.45;;;6.50;86.20;;;;;;5035363;28;20021;-76
2021/11/27 12:51:15;;;;;;;20.58;8.02;;;6.50;86.50;;;;;;5035060;28;20077;-75
2021/11/27 12:54:00;;;;;;;18.08;6.72;;;6.60;86.80;;;;;;5035018;28;20013;-74
2021/11/27 12:56:27;;;;;;;17.38;6.35;;;6.60;86.60;;;;;;5023811;28;20060;-75
2021/11/27 12:58:58;;;;;;;14.95;4.25;;;6.60;86.70;;;;;;5036942;28;20087;-72